Data for 09/02/2014

Time Sea-Level Adjusted Pressure Absolute Pressure Temperature Relative Humidity Dew Point   
(mb) (inHg) (mb) (inHg) (C) (F) (%) (C) (F)
00:05 1018 30.06 847 25.01 11.6 52.8 50 1.4 34.6
00:10 1018 30.06 847 25.01 11.6 52.8 49 1.4 34.5
00:15 1018 30.06 847 25.01 11.5 52.7 51 1.9 35.4
00:20 1018 30.06 847 25.01 11.1 51.9 54 2.1 35.8
00:25 1018 30.06 847 25.01 10.7 51.2 55 2.1 35.8
00:30 1018 30.06 847 25.01 10.7 51.3 55 2.2 35.9
00:35 1018 30.06 847 25.01 10.5 51 57 2.5 36.6
00:40 1018 30.06 847 25.01 10.4 50.6 57 2.2 36
00:45 1018 30.06 847 25.01 10.3 50.5 59 2.6 36.7
00:50 1018 30.06 847 25.01 9.9 49.8 60 2.6 36.7
00:55 1018 30.06 847 25.01 9.5 49.2 62 2.7 36.8
01:00 1018 30.06 847 25.01 9.1 48.4 65 2.8 37.1
01:05 1018 30.06 847 25.01 8.7 47.6 65 2.6 36.7
01:10 1018 30.06 847 25.01 8.9 48 61 1.8 35.2
01:15 1018 30.06 847 25.01 9.4 49 59 1.8 35.2
01:20 1018 30.06 847 25.01 9.9 49.8 57 1.9 35.4
01:25 1018 30.06 847 25.01 9.8 49.7 59 2.2 36
01:30 1018 30.06 847 25.01 9.2 48.6 63 2.7 36.8
01:35 1018 30.06 847 25.01 9 48.2 62 2.1 35.7
01:40 1018 30.06 847 25.01 8.9 48 63 2.3 36.1
01:45 1018 30.06 847 25.01 8.8 47.9 63 2.2 35.9
01:50 1018 30.06 847 25.01 8.8 47.8 63 2.1 35.8
01:55 1018 30.06 847 25.01 9.1 48.3 61 1.9 35.4
02:00 1018 30.06 847 25.01 9.4 48.9 59 1.8 35.2
02:05 1018 30.06 847 25.01 9.6 49.4 58 1.8 35.3
02:10 1018 30.06 847 25.01 9.6 49.2 59 2 35.6
02:15 1017 30.03 847 25.01 9.4 49 60 2.2 35.9
02:20 1017 30.03 847 25.01 9.2 48.6 62 2.3 36.1
02:25 1017 30.03 847 25.01 8.7 47.7 65 2.5 36.5
02:30 1017 30.03 847 25.01 8.4 47.1 65 2.3 36.1
02:35 1017 30.03 847 25.01 8.5 47.2 66 2.4 36.4
02:40 1017 30.03 847 25.01 8.2 46.8 67 2.4 36.4
02:45 1017 30.03 847 25.01 8.2 46.7 66 2.3 36.2
02:50 1017 30.03 847 25.01 8.2 46.7 67 2.4 36.4
02:55 1017 30.03 847 25.01 8 46.4 68 2.4 36.3
03:00 1017 30.03 847 25.01 7.8 46.1 69 2.5 36.6
03:05 1017 30.03 847 25.01 7.7 45.8 69 2.4 36.3
03:10 1017 30.03 847 25.01 7.7 45.8 70 2.5 36.5
03:15 1017 30.03 847 25.01 7.5 45.6 70 2.5 36.5
03:20 1017 30.03 847 25.01 7.6 45.6 69 2.2 36
03:25 1017 30.03 847 25.01 7.9 46.2 67 2.2 36
03:30 1017 30.03 847 25.01 8.1 46.6 65 2 35.6
03:35 1017 30.03 847 25.01 8.3 46.9 65 2.2 36
03:40 1017 30.03 847 25.01 8.3 46.9 65 2.2 36
03:45 1017 30.03 847 25.01 8.2 46.8 65 2.2 35.9
03:50 1017 30.03 847 25.01 8.2 46.8 65 2 35.6
03:55 1017 30.03 847 25.01 8.3 46.9 65 2 35.6
04:00 1017 30.03 847 25.01 8.3 46.9 65 2 35.7
04:05 1017 30.03 847 25.01 8.3 46.9 65 2.2 35.9
04:10 1017 30.03 847 25.01 8.1 46.6 66 2.2 36
04:15 1017 30.03 847 25.01 8 46.4 66 2 35.6
04:20 1017 30.03 847 25.01 8 46.4 66 2 35.6
04:25 1017 30.03 847 25.01 8 46.5 66 2.1 35.7
04:30 1017 30.03 847 25.01 7.9 46.2 66 2 35.7
04:35 1017 30.03 847 25.01 8 46.3 66 2 35.6
04:40 1017 30.03 847 25.01 8 46.3 66 2.1 35.8
04:45 1017 30.03 847 25.01 8 46.4 65 1.9 35.5
04:50 1017 30.03 847 25.01 8 46.3 66 2.1 35.8
04:55 1017 30.03 847 25.01 7.7 45.8 68 2.1 35.9
05:00 1017 30.03 847 25.01 7.5 45.5 67 1.8 35.3
05:05 1017 30.03 847 25.01 7.5 45.6 68 2 35.6
05:10 1017 30.03 847 25.01 7.7 45.8 66 1.7 35.1
05:15 1017 30.03 847 25.01 7.9 46.2 65 1.7 35.1
05:20 1017 30.03 847 25.01 7.9 46.2 65 1.8 35.3
05:25 1017 30.03 847 25.01 8 46.4 65 1.9 35.4
05:30 1017 30.03 847 25.01 7.8 46.1 67 2 35.6
05:35 1017 30.03 847 25.01 7.6 45.8 68 2.2 35.9
05:40 1017 30.03 846 24.98 7.4 45.3 69 2.2 36
05:45 1017 30.03 846 24.98 7.2 44.9 71 2.3 36.1
05:50 1017 30.03 846 24.98 6.9 44.5 71 2.1 35.8
05:55 1017 30.03 846 24.98 7 44.5 72 2.2 36
06:00 1017 30.03 846 24.98 6.9 44.4 72 2.2 35.9
06:05 1017 30.03 846 24.98 6.8 44.3 72 2.1 35.8
06:10 1017 30.03 847 25.01 7 44.7 70 1.9 35.4
06:15 1017 30.03 847 25.01 7.3 45.2 68 1.8 35.3
06:20 1017 30.03 847 25.01 7.5 45.6 67 1.9 35.4
06:25 1017 30.03 847 25.01 7.7 45.9 65 1.6 34.8
06:30 1017 30.03 847 25.01 8 46.4 65 1.8 35.3
06:35 1017 30.03 847 25.01 8 46.5 65 1.8 35.2
06:40 1017 30.03 847 25.01 8.3 46.9 64 1.9 35.4
06:45 1017 30.03 847 25.01 8.7 47.6 63 2 35.7
06:50 1017 30.03 847 25.01 8.8 47.9 64 2.3 36.2
06:55 1017 30.03 847 25.01 8.9 48 62 2.1 35.9
07:00 1017 30.03 847 25.01 9.3 48.8 62 2.4 36.4
07:05 1017 30.03 847 25.01 9.7 49.5 61 2.5 36.5
07:10 1017 30.03 847 25.01 10.2 50.3 59 2.6 36.6
07:15 1017 30.03 847 25.01 10 49.9 61 2.7 36.9
07:20 1018 30.06 847 25.01 10 50 59 2.5 36.5
07:25 1018 30.06 847 25.01 10.1 50.2 60 2.7 36.9
07:30 1018 30.06 847 25.01 10.4 50.8 59 2.7 36.9
07:35 1018 30.06 847 25.01 10.4 50.7 60 3.1 37.6
07:40 1018 30.06 847 25.01 10.1 50.2 61 3 37.5
07:45 1018 30.06 847 25.01 10.5 50.9 60 3 37.5
07:50 1018 30.06 847 25.01 10.8 51.4 60 3.3 38
07:55 1018 30.06 847 25.01 11.3 52.3 56 2.9 37.2
08:00 1018 30.06 847 25.01 12.1 53.8 53 2.8 37.1
08:05 1018 30.06 847 25.01 12.6 54.7 52 2.9 37.3
08:10 1018 30.06 847 25.01 13 55.4 51 3.2 37.8
08:15 1018 30.06 847 25.01 13.3 56 50 3.3 37.9
08:20 1017 30.03 847 25.01 13.8 56.9 49 3.4 38.2
08:25 1017 30.03 847 25.01 14.2 57.5 48 3.4 38.1
08:30 1017 30.03 847 25.01 15 58.9 47 3.7 38.7
08:35 1017 30.03 847 25.01 15.5 59.8 43 3 37.4
08:40 1017 30.03 847 25.01 15.9 60.5 43 3.2 37.8
08:45 1017 30.03 847 25.01 16.1 61 41 2.9 37.2
08:50 1017 30.03 847 25.01 16 60.9 40 2.4 36.4
08:55 1017 30.03 847 25.01 15.7 60.2 41 2.6 36.7
09:00 1017 30.03 847 25.01 15.7 60.3 40 2.1 35.8
09:05 1017 30.03 847 25.01 16.2 61.2 39 2.4 36.3
09:10 1017 30.03 847 25.01 16.2 61.2 41 3.1 37.6
09:15 1017 30.03 846 24.98 16.7 62.1 38 2.3 36.1
09:20 1017 30.03 846 24.98 17.6 63.6 35 2 35.6
09:25 1017 30.03 846 24.98 17.5 63.6 37 3 37.4
09:30 1017 30.03 846 24.98 17.3 63.2 35 2 35.6
09:35 1017 30.03 846 24.98 17.9 64.1 36 2.6 36.7
09:40 1017 30.03 846 24.98 17.7 63.9 36 2.6 36.6
09:45 1017 30.03 846 24.98 17.1 62.8 38 2.7 36.9
09:50 1017 30.03 846 24.98 16.9 62.5 37 2.4 36.3
09:55 1017 30.03 846 24.98 17.3 63.2 35 2 35.6
10:00 1017 30.03 846 24.98 17.1 62.8 37 2.5 36.4
10:05 1017 30.03 846 24.98 17.6 63.7 34 1.6 34.9
10:10 1017 30.03 846 24.98 18.6 65.5 32 1.9 35.3
10:15 1017 30.03 846 24.98 18.6 65.5 32 1.6 34.9
10:20 1016 30 846 24.98 17.8 64 33 1.3 34.3
10:25 1016 30 846 24.98 17.9 64.1 32 1.2 34.2
10:30 1016 30 846 24.98 18.8 65.9 30 1 33.8
10:35 1016 30 846 24.98 19 66.2 32 1.9 35.4
10:40 1016 30 846 24.98 19.1 66.5 32 2.1 35.7
10:45 1016 30 845 24.95 18.6 65.4 32 1.5 34.7
10:50 1016 30 845 24.95 18.6 65.4 32 1.7 35
10:55 1016 30 845 24.95 19.2 66.5 32 2.2 35.9
11:00 1016 30 845 24.95 19.6 67.3 33 3 37.3
11:05 1016 30 845 24.95 19 66.2 32 2.3 36.1
11:10 1016 30 845 24.95 20.1 68.2 30 1.9 35.5
11:15 1016 30 845 24.95 19.5 67.1 32 2.5 36.5
11:20 1016 30 845 24.95 19.3 66.8 32 2.6 36.7
11:25 1016 30 845 24.95 19.1 66.4 33 2.7 36.9
11:30 1016 30 845 24.95 19.7 67.5 32 2.5 36.5
11:35 1016 30 845 24.95 20.7 69.3 28 1.8 35.2
11:40 1015 29.97 845 24.95 20.5 68.9 30 2.4 36.3
11:45 1015 29.97 845 24.95 21.3 70.4 28 2.1 35.8
11:50 1015 29.97 844 24.92 21.6 70.8 29 2.8 37
11:55 1015 29.97 844 24.92 20.5 68.8 28 1.5 34.7
12:00 1015 29.97 844 24.92 21.5 70.7 27 1.8 35.2
12:05 1015 29.97 844 24.92 21.9 71.5 27 2.1 35.8
12:10 1015 29.97 844 24.92 22.5 72.4 26 2.1 35.7
12:15 1015 29.97 844 24.92 23 73.4 25 2.1 35.8
12:20 1015 29.97 844 24.92 23.3 73.9 25 2.3 36.2
12:25 1015 29.97 844 24.92 23.1 73.6 24 1.9 35.4
12:30 1014 29.94 844 24.92 22.4 72.4 26 2 35.6
12:35 1014 29.94 844 24.92 22.4 72.4 26 2 35.6
12:40 1014 29.94 843 24.89 23.2 73.7 24 1.5 34.6
12:45 1014 29.94 843 24.89 23.5 74.3 24 1.9 35.3
12:50 1014 29.94 843 24.89 23.9 75.1 23 1.6 34.9
12:55 1014 29.94 843 24.89 24.6 76.3 22 1.6 34.9
13:00 1014 29.94 843 24.89 24.7 76.5 22 1.6 34.9
13:05 1014 29.94 843 24.89 24.4 75.9 23 2 35.7
13:10 1014 29.94 843 24.89 23.5 74.2 23 1.6 34.9
13:15 1014 29.94 843 24.89 23.2 73.7 23 1.2 34.2
13:20 1014 29.94 843 24.89 23 73.4 24 1.4 34.6
13:25 1014 29.94 843 24.89 22.5 72.5 23 0.3 32.6
13:30 1014 29.94 843 24.89 23.8 74.8 23 1.4 34.6
13:35 1013 29.91 843 24.89 24.6 76.2 23 2.6 36.6
13:40 1013 29.91 843 24.89 23.7 74.7 23 1.7 35.1
13:45 1013 29.91 843 24.89 23.9 75.1 23 1.9 35.5
13:50 1013 29.91 842 24.86 24.9 76.8 21 1.2 34.1
13:55 1013 29.91 842 24.86 25.7 78.2 20 1.5 34.7
14:00 1013 29.91 842 24.86 25.3 77.6 22 2.3 36.1
14:05 1013 29.91 842 24.86 24.7 76.5 22 1.6 34.8
14:10 1013 29.91 842 24.86 24.6 76.3 20 0.4 32.8
14:15 1013 29.91 842 24.86 25.5 77.9 20 0.9 33.7
14:20 1013 29.91 842 24.86 25.5 77.8 20 0.9 33.6
14:25 1013 29.91 842 24.86 25.6 78 19 0.6 33.1
14:30 1012 29.88 842 24.86 25.8 78.5 20 1.8 35.2
14:35 1012 29.88 842 24.86 25.6 78 19 0.2 32.4
14:40 1012 29.88 841 24.83 25.7 78.2 17 -1.2 29.9
14:45 1012 29.88 841 24.83 26.8 80.2 18 0.5 32.8
14:50 1012 29.88 841 24.83 26.3 79.4 16 -0.9 30.4
14:55 1012 29.88 841 24.83 26.6 79.9 15 -2.1 28.3
15:00 1012 29.88 841 24.83 26.4 79.5 16 -1.5 29.2
15:05 1012 29.88 841 24.83 26.1 79 15 -1.9 28.6
15:10 1012 29.88 841 24.83 26.5 79.7 14 -3.3 26
15:15 1012 29.88 841 24.83 26.6 79.8 14 -2.8 27
15:20 1012 29.88 841 24.83 26.5 79.7 13 -3.5 25.7
15:25 1012 29.88 841 24.83 26.4 79.6 12 -4.9 23.2
15:30 1012 29.88 841 24.83 26.2 79.1 14 -3.4 25.8
15:35 1012 29.88 841 24.83 26.3 79.3 13 -3.7 25.4
15:40 1012 29.88 841 24.83 26.2 79.1 14 -3.6 25.5
15:45 1011 29.85 841 24.83 26.2 79.1 14 -3.1 26.4
15:50 1011 29.85 841 24.83 26.2 79.1 14 -3.6 25.6
15:55 1011 29.85 840 24.81 26.4 79.5 14 -3.3 26
16:00 1011 29.85 840 24.81 26.4 79.5 15 -2.5 27.5
16:05 1011 29.85 840 24.81 26.2 79.1 15 -2.5 27.4
16:10 1011 29.85 840 24.81 26.1 78.9 14 -3.2 26.2
16:15 1011 29.85 840 24.81 26.1 79 14 -2.9 26.7
16:20 1011 29.85 840 24.81 26.1 79 15 -2.7 27.1
16:25 1011 29.85 840 24.81 25.9 78.5 14 -3.6 25.6
16:30 1011 29.85 840 24.81 25.8 78.4 15 -2.7 27.2
16:35 1011 29.85 840 24.81 25.7 78.2 14 -3.6 25.5
16:40 1011 29.85 840 24.81 25.5 77.9 14 -3.5 25.8
16:45 1011 29.85 840 24.81 25.4 77.6 14 -3.9 25.1
16:50 1011 29.85 840 24.81 25.5 77.9 14 -3.3 26
16:55 1011 29.85 840 24.81 25.7 78.2 14 -3.6 25.5
17:00 1011 29.85 840 24.81 25.6 78 15 -2.6 27.3
17:05 1011 29.85 840 24.81 25.7 78.2 15 -2.9 26.8
17:10 1011 29.85 840 24.81 25.3 77.5 15 -3.2 26.3
17:15 1011 29.85 840 24.81 25.2 77.4 15 -3.4 25.9
17:20 1011 29.85 840 24.81 25.2 77.3 14 -3.8 25.1
17:25 1011 29.85 840 24.81 24.9 76.8 15 -3.2 26.3
17:30 1011 29.85 840 24.81 24.8 76.6 15 -3 26.6
17:35 1011 29.85 840 24.81 24.7 76.5 15 -3.8 25.1
17:40 1011 29.85 840 24.81 24.7 76.4 15 -3.3 26.1
17:45 1011 29.85 840 24.81 24.5 76.1 17 -2 28.3
17:50 1011 29.85 840 24.81 24.3 75.7 16 -3.2 26.2
17:55 1011 29.85 840 24.81 24.1 75.4 16 -3.4 25.9
18:00 1011 29.85 840 24.81 24.1 75.3 17 -2.3 27.9
18:05 1011 29.85 840 24.81 23.9 75 18 -1.6 29.1
18:10 1011 29.85 840 24.81 23.7 74.7 18 -1.4 29.4
18:15 1010 29.83 840 24.81 23.4 74.2 19 -1.2 29.8
18:20 1010 29.83 840 24.81 23.3 73.9 19 -1.5 29.2
18:25 1010 29.83 840 24.81 23 73.3 20 -0.9 30.4
18:30 1010 29.83 840 24.81 22.5 72.6 21 -0.8 30.6
18:35 1010 29.83 840 24.81 22.2 71.9 22 -0.5 31.1
18:40 1010 29.83 840 24.81 22.1 71.7 22 -0.3 31.5
18:45 1010 29.83 840 24.81 21.7 71.1 24 0.2 32.4
18:50 1010 29.83 840 24.81 21.2 70.2 24 0.2 32.3
18:55 1010 29.83 840 24.81 20.8 69.5 25 0.3 32.5
19:00 1010 29.83 840 24.81 20.4 68.8 26 0.3 32.5
19:05 1010 29.83 840 24.81 20.3 68.5 25 -0.3 31.4
19:10 1010 29.83 840 24.81 20.3 68.5 27 0.8 33.4
19:15 1010 29.83 840 24.81 19.9 67.9 27 0.5 33
19:20 1010 29.83 840 24.81 19.7 67.4 27 0.3 32.6
19:25 1010 29.83 840 24.81 19.6 67.3 26 -0.3 31.5
19:30 1010 29.83 840 24.81 19.6 67.2 26 -0.5 31
19:35 1010 29.83 840 24.81 19.3 66.8 26 -0.5 31.2
19:40 1010 29.83 840 24.81 19.3 66.7 26 -0.7 30.8
19:45 1010 29.83 840 24.81 19.3 66.8 26 -0.6 30.9
19:50 1010 29.83 840 24.81 19.3 66.7 24 -1.5 29.4
19:55 1010 29.83 840 24.81 19.3 66.8 25 -1 30.2
20:00 1010 29.83 840 24.81 19.3 66.7 25 -0.9 30.3
20:05 1011 29.85 840 24.81 19.3 66.8 25 -1.2 29.9
20:10 1011 29.85 840 24.81 19.3 66.7 25 -1.2 29.8
20:15 1011 29.85 840 24.81 19.3 66.8 24 -1.5 29.4
20:20 1011 29.85 840 24.81 19.2 66.6 25 -0.9 30.3
20:25 1011 29.85 840 24.81 19.2 66.5 25 -1.1 29.9
20:30 1011 29.85 840 24.81 19.2 66.6 25 -1.2 29.8
20:35 1011 29.85 840 24.81 19.3 66.7 24 -1.5 29.2
20:40 1011 29.85 840 24.81 19.7 67.4 23 -1.7 28.9
20:45 1011 29.85 840 24.81 20 67.9 23 -1.8 28.8
20:50 1011 29.85 840 24.81 19.7 67.5 26 -0.4 31.3
20:55 1011 29.85 840 24.81 19.2 66.5 25 -1 30.2
21:00 1011 29.85 840 24.81 18.9 66 26 -0.8 30.5
21:05 1010 29.83 840 24.81 18.8 65.8 28 0.1 32.2
21:10 1010 29.83 840 24.81 18.8 65.8 24 -1.9 28.6
21:15 1011 29.85 840 24.81 18.8 65.8 30 0.8 33.5
21:20 1011 29.85 840 24.81 17.1 62.8 33 0.6 33.2
21:25 1011 29.85 840 24.81 16.7 62 32 0.2 32.3
21:30 1011 29.85 840 24.81 16.7 62 32 0.1 32.2
21:35 1011 29.85 840 24.81 16.7 62.1 34 0.7 33.3
21:40 1010 29.83 840 24.81 16.8 62.2 30 -0.8 30.5
21:45 1010 29.83 840 24.81 17.4 63.4 29 -0.6 31
21:50 1010 29.83 840 24.81 17.5 63.5 29 -0.6 31
21:55 1010 29.83 840 24.81 17.5 63.6 30 0 32.1
22:00 1010 29.83 840 24.81 17.8 64 28 -0.8 30.6
22:05 1010 29.83 840 24.81 18 64.3 27 -1.1 30
22:10 1010 29.83 839 24.78 17.9 64.3 27 -1.1 30
22:15 1010 29.83 839 24.78 17.8 64.1 27 -1.2 29.9
22:20 1010 29.83 840 24.81 17.6 63.7 28 -1 30.1
22:25 1010 29.83 840 24.81 17.5 63.5 30 -0.3 31.4
22:30 1010 29.83 840 24.81 16.8 62.2 30 -1 30.2
22:35 1010 29.83 840 24.81 16.9 62.4 33 0.5 32.9
22:40 1010 29.83 840 24.81 16.3 61.3 32 -0.4 31.2
22:45 1010 29.83 840 24.81 15.9 60.7 33 -0.4 31.2
22:50 1010 29.83 840 24.81 15.6 60 32 -0.8 30.5
22:55 1010 29.83 840 24.81 15.4 59.7 34 -0.4 31.3
23:00 1010 29.83 840 24.81 15.2 59.4 32 -1.3 29.7
23:05 1010 29.83 840 24.81 15.7 60.3 32 -0.9 30.4
23:10 1010 29.83 840 24.81 15.7 60.2 34 -0.2 31.7
23:15 1010 29.83 840 24.81 14.7 58.5 37 0.2 32.4
23:20 1010 29.83 840 24.81 14.4 57.8 38 0.3 32.5
23:25 1010 29.83 840 24.81 14.1 57.5 37 -0.1 31.9
23:30 1010 29.83 839 24.78 14 57.1 39 0.3 32.5
23:35 1010 29.83 839 24.78 13.7 56.7 39 0.2 32.3
23:40 1010 29.83 839 24.78 13.6 56.5 39 0.1 32.2
23:45 1010 29.83 839 24.78 13.6 56.4 40 0.2 32.4
23:50 1010 29.83 839 24.78 13.5 56.3 40 0.2 32.3
23:55 1010 29.83 839 24.78 13.7 56.6 37 -0.6 30.9
24:00 1010 29.83 839 24.78 14 57.1 37 -0.3 31.5